Time;durP1;ratioP1;P1;durP2;ratioP2;P2;SDS_P1;SDS_P2;PMS_P1;PMS_P2;Temp;Humidity;BMP_temperature;BMP_pressure;BME280_temperature;BME280_humidity;BME280_pressure;Samples;Min_cycle;Max_cycle;Signal;HPM_P1;HPM_P2
2023/03/02 00:01:20;;;;;;;;;;;6.00;43.10;;;;;;5049935;28;20006;-89
2023/03/02 00:03:46;;;;;;;;;;;6.00;43.20;;;;;;5051692;28;19948;-92
2023/03/02 00:06:11;;;;;;;;;;;5.90;43.20;;;;;;5058642;28;20354;-91
2023/03/02 00:08:37;;;;;;;;;;;5.90;43.20;;;;;;5074590;28;19920;-91
2023/03/02 00:11:02;;;;;;;;;;;5.90;43.20;;;;;;5070194;28;19908;-91
2023/03/02 00:13:29;;;;;;;;;;;5.90;43.30;;;;;;5069570;28;20050;-94
2023/03/02 00:15:58;;;;;;;;;;;5.90;43.20;;;;;;5067928;28;20062;-91
2023/03/02 00:18:24;;;;;;;;;;;5.90;43.20;;;;;;5049770;28;19917;-91
2023/03/02 00:20:50;;;;;;;;;;;5.90;43.20;;;;;;5051447;28;19924;-95
2023/03/02 00:23:15;;;;;;;;;;;5.90;43.10;;;;;;5050655;28;19939;-93
2023/03/02 00:25:41;;;;;;;;;;;5.80;43.10;;;;;;5049825;28;19913;-91
2023/03/02 00:28:07;;;;;;;;;;;5.80;43.10;;;;;;5051120;28;19931;-92
2023/03/02 00:30:33;;;;;;;;;;;5.80;43.20;;;;;;5049253;28;20003;-91
2023/03/02 00:32:58;;;;;;;;;;;5.80;43.20;;;;;;5049144;28;19921;-91
2023/03/02 00:35:27;;;;;;;;;;;5.80;43.30;;;;;;5049599;28;20705;-91
2023/03/02 00:37:53;;;;;;;;;;;5.70;43.20;;;;;;5049364;28;20003;-92
2023/03/02 00:40:18;;;;;;;;;;;5.70;43.00;;;;;;5050634;28;20003;-93
2023/03/02 00:42:44;;;;;;;;;;;5.60;43.00;;;;;;5049734;28;19917;-90
2023/03/02 00:45:10;;;;;;;;;;;5.50;43.00;;;;;;5050828;28;19916;-91
2023/03/02 00:47:36;;;;;;;;;;;5.30;42.90;;;;;;5050456;28;19971;-91
2023/03/02 00:50:02;;;;;;;;;;;5.20;42.90;;;;;;5050423;28;19991;-92
2023/03/02 00:52:28;;;;;;;;;;;5.10;43.00;;;;;;5048581;28;20039;-92
2023/03/02 00:54:54;;;;;;;;;;;5.00;43.10;;;;;;5049204;28;20346;-94
2023/03/02 00:57:20;;;;;;;;;;;5.00;43.20;;;;;;5049122;28;19940;-91
2023/03/02 00:59:45;;;;;;;;;;;4.90;43.00;;;;;;5049556;28;20338;-91
2023/03/02 01:02:11;;;;;;;;;;;4.80;43.00;;;;;;5050647;28;19920;-90
2023/03/02 01:04:38;;;;;;;;;;;4.70;43.10;;;;;;5050279;28;19909;-91
2023/03/02 01:07:05;;;;;;;;;;;4.60;43.00;;;;;;5047778;28;19916;-90
2023/03/02 01:09:30;;;;;;;;;;;4.50;42.90;;;;;;5047047;28;19923;-92
2023/03/02 01:11:56;;;;;;;;;;;4.30;43.10;;;;;;5049489;28;19917;-92
2023/03/02 01:14:22;;;;;;;;;;;4.30;43.70;;;;;;5047629;28;20317;-91
2023/03/02 01:16:48;;;;;;;;;;;4.20;44.00;;;;;;5047831;28;19916;-92
2023/03/02 01:19:13;;;;;;;;;;;4.20;43.80;;;;;;5048237;28;19940;-90
2023/03/02 01:24:59;;;;;;;;;;;4.00;43.90;;;;;;4985769;28;19989;-89
2023/03/02 01:27:25;;;;;;;;;;;4.00;44.20;;;;;;5042570;28;20629;-90
2023/03/02 01:29:51;;;;;;;;;;;3.90;44.70;;;;;;5049836;28;19959;-91
2023/03/02 01:32:17;;;;;;;;;;;3.90;45.10;;;;;;5046627;28;19917;-93
2023/03/02 01:34:43;;;;;;;;;;;4.00;45.60;;;;;;5049139;28;20450;-90
2023/03/02 01:37:09;;;;;;;;;;;4.00;45.80;;;;;;5048559;28;19917;-93
2023/03/02 01:39:34;;;;;;;;;;;4.00;45.80;;;;;;5047696;28;19965;-92
2023/03/02 01:42:00;;;;;;;;;;;4.00;45.80;;;;;;5050714;28;19917;-89
2023/03/02 01:44:34;;;;;;;;;;;4.00;45.80;;;;;;5047926;28;19916;-90
2023/03/02 01:47:01;;;;;;;;;;;4.00;45.70;;;;;;5047314;28;19916;-90
2023/03/02 01:49:27;;;;;;;;;;;4.00;46.10;;;;;;5047349;28;19921;-91
2023/03/02 01:51:53;;;;;;;;;;;4.10;46.50;;;;;;5047535;28;19921;-89
2023/03/02 01:54:22;;;;;;;;;;;4.10;46.90;;;;;;5048965;28;20015;-93
2023/03/02 01:56:53;;;;;;;;;;;4.10;47.00;;;;;;5052846;28;20002;-90
2023/03/02 01:59:21;;;;;;;;;;;4.20;47.00;;;;;;5052369;28;20303;-93
2023/03/02 02:01:49;;;;;;;;;;;4.30;47.00;;;;;;5051629;28;20367;-90
2023/03/02 02:04:15;;;;;;;;;;;4.30;46.70;;;;;;5050609;28;20393;-93
2023/03/02 02:06:45;;;;;;;;;;;4.30;46.20;;;;;;5052331;28;20001;-91
2023/03/02 02:09:16;;;;;;;;;;;4.20;45.80;;;;;;5050884;28;20299;-90
2023/03/02 02:11:42;;;;;;;;;;;4.10;45.60;;;;;;5051320;28;19952;-91
2023/03/02 02:14:10;;;;;;;;;;;4.10;45.70;;;;;;5052062;28;20303;-90
2023/03/02 02:16:36;;;;;;;;;;;4.00;45.90;;;;;;5052489;28;19917;-90
2023/03/02 02:19:08;;;;;;;;;;;3.90;46.00;;;;;;5053225;28;19913;-90
2023/03/02 02:21:35;;;;;;;;;;;3.90;46.10;;;;;;5051837;28;19987;-91
2023/03/02 02:24:10;;;;;;;;;;;3.90;46.40;;;;;;5052143;28;19909;-90
2023/03/02 02:26:39;;;;;;;;;;;3.90;46.60;;;;;;5051813;28;19917;-90
2023/03/02 02:29:11;;;;;;;;;;;3.90;46.60;;;;;;5051822;28;19917;-90
2023/03/02 02:31:39;;;;;;;;;;;3.90;46.70;;;;;;5052468;28;19921;-93
2023/03/02 02:34:14;;;;;;;;;;;3.90;47.00;;;;;;5051847;28;19923;-91
2023/03/02 02:36:42;;;;;;;;;;;4.00;47.00;;;;;;5033042;28;20000;-90
2023/03/02 02:39:10;;;;;;;;;;;4.00;47.00;;;;;;5031541;28;19967;-93
2023/03/02 02:41:37;;;;;;;;;;;4.00;47.00;;;;;;5032088;28;20045;-91
2023/03/02 02:44:03;;;;;;;;;;;4.00;46.90;;;;;;5033339;28;20000;-92
2023/03/02 02:46:30;;;;;;;;;;;4.00;46.90;;;;;;5031540;28;20004;-91
2023/03/02 02:48:57;;;;;;;;;;;3.90;46.80;;;;;;5031565;28;19964;-90
2023/03/02 02:51:26;;;;;;;;;;;3.90;46.80;;;;;;5033099;28;19996;-94
2023/03/02 02:53:57;;;;;;;;;;;3.90;46.80;;;;;;5031084;28;20421;-91
2023/03/02 02:56:33;;;;;;;;;;;3.90;46.90;;;;;;5032951;28;20004;-93
2023/03/02 02:59:04;;;;;;;;;;;3.80;46.90;;;;;;5046836;28;19967;-90
2023/03/02 03:01:32;;;;;;;;;;;3.80;47.00;;;;;;5051064;28;19924;-93
2023/03/02 03:04:00;;;;;;;;;;;3.80;46.90;;;;;;5052575;28;19912;-91
2023/03/02 03:06:29;;;;;;;;;;;3.80;46.70;;;;;;5051458;28;19978;-91
2023/03/02 03:08:56;;;;;;;;;;;3.70;46.60;;;;;;5050931;28;20019;-91
2023/03/02 03:11:23;;;;;;;;;;;3.70;46.60;;;;;;5051225;28;19999;-90
2023/03/02 03:14:09;;;;;;;;;;;3.60;46.80;;;;;;5052667;28;20012;-93
2023/03/02 03:16:35;;;;;;;;;;;3.60;46.70;;;;;;5050801;28;19924;-94
2023/03/02 03:19:10;;;;;;;;;;;3.50;46.70;;;;;;5051134;28;19929;-91
2023/03/02 03:21:36;;;;;;;;;;;3.40;46.60;;;;;;5050589;28;19956;-92
2023/03/02 03:24:02;;;;;;;;;;;3.30;46.40;;;;;;5051031;28;19943;-91
2023/03/02 03:26:35;;;;;;;;;;;3.30;46.30;;;;;;5032833;28;19917;-89
2023/03/02 03:29:02;;;;;;;;;;;3.20;46.30;;;;;;5031477;28;20284;-90
2023/03/02 03:31:28;;;;;;;;;;;3.10;46.60;;;;;;5032117;28;19918;-89
2023/03/02 03:33:54;;;;;;;;;;;3.10;46.90;;;;;;5032461;28;19954;-89
2023/03/02 03:36:20;;;;;;;;;;;3.10;47.00;;;;;;5031041;28;19920;-90
2023/03/02 03:38:47;;;;;;;;;;;3.10;46.80;;;;;;5031721;28;19921;-89
2023/03/02 03:41:13;;;;;;;;;;;3.00;46.70;;;;;;5032420;28;20567;-92
2023/03/02 03:43:39;;;;;;;;;;;3.00;46.70;;;;;;5030874;28;19975;-91
2023/03/02 03:46:04;;;;;;;;;;;3.00;46.60;;;;;;5031738;28;19917;-91
2023/03/02 03:48:30;;;;;;;;;;;3.00;46.90;;;;;;5030505;28;20366;-88
2023/03/02 03:50:57;;;;;;;;;;;2.90;47.10;;;;;;5030878;28;19974;-93
2023/03/02 03:53:23;;;;;;;;;;;2.90;47.40;;;;;;5030481;28;19913;-92
2023/03/02 03:55:52;;;;;;;;;;;2.90;47.50;;;;;;5030512;28;19917;-93
2023/03/02 03:58:17;;;;;;;;;;;2.90;47.50;;;;;;5030596;28;19921;-91
2023/03/02 04:00:46;;;;;;;;;;;2.80;47.50;;;;;;5031488;28;19920;-90
2023/03/02 04:03:12;;;;;;;;;;;2.80;47.50;;;;;;5051229;28;20461;-94
2023/03/02 04:05:38;;;;;;;;;;;2.80;47.60;;;;;;5050342;28;19913;-92
2023/03/02 04:08:04;;;;;;;;;;;2.80;47.90;;;;;;5049951;28;19920;-93
2023/03/02 04:10:30;;;;;;;;;;;2.80;48.00;;;;;;5050837;28;19913;-91
2023/03/02 04:13:06;;;;;;;;;;;2.80;48.10;;;;;;5049899;28;19961;-92
2023/03/02 04:15:31;;;;;;;;;;;2.90;48.30;;;;;;5051644;28;19920;-94
2023/03/02 04:17:57;;;;;;;;;;;2.80;48.40;;;;;;5049263;28;20458;-90
2023/03/02 04:20:23;;;;;;;;;;;2.80;48.60;;;;;;5049840;28;19913;-91
2023/03/02 04:22:50;;;;;;;;;;;2.90;48.70;;;;;;5049770;28;19917;-90
2023/03/02 04:25:20;;;;;;;;;;;2.90;48.80;;;;;;5050982;28;19913;-93
2023/03/02 04:27:47;;;;;;;;;;;3.00;48.80;;;;;;5049063;28;19981;-92
2023/03/02 04:30:13;;;;;;;;;;;3.00;48.70;;;;;;5049435;28;19944;-92
2023/03/02 04:32:39;;;;;;;;;;;3.00;48.50;;;;;;5046876;28;19917;-90
2023/03/02 04:35:05;;;;;;;;;;;3.00;48.50;;;;;;5030953;28;19909;-90
2023/03/02 04:37:30;;;;;;;;;;;3.00;48.50;;;;;;5029647;28;19917;-89
2023/03/02 04:39:56;;;;;;;;;;;3.10;48.70;;;;;;5029180;28;19923;-92
2023/03/02 04:42:22;;;;;;;;;;;3.10;48.80;;;;;;5030819;28;20368;-89
2023/03/02 04:44:47;;;;;;;;;;;3.20;49.00;;;;;;5033830;28;19916;-91
2023/03/02 04:47:13;;;;;;;;;;;3.20;49.00;;;;;;5049007;28;19917;-90
2023/03/02 04:49:39;;;;;;;;;;;3.30;49.10;;;;;;5050766;28;19956;-92
2023/03/02 04:52:04;;;;;;;;;;;3.30;49.10;;;;;;5048741;28;20033;-91
2023/03/02 04:54:30;;;;;;;;;;;3.40;49.10;;;;;;5049060;28;20447;-90
2023/03/02 04:56:56;;;;;;;;;;;3.50;49.00;;;;;;5049940;28;19952;-92
2023/03/02 04:59:24;;;;;;;;;;;3.50;48.80;;;;;;5048691;28;19909;-90
2023/03/02 05:01:51;;;;;;;;;;;3.50;48.70;;;;;;5049977;28;20288;-89
2023/03/02 05:04:17;;;;;;;;;;;3.50;48.70;;;;;;5049889;28;20367;-92
2023/03/02 05:06:42;;;;;;;;;;;3.50;48.60;;;;;;5048701;28;20337;-89
2023/03/02 05:09:09;;;;;;;;;;;3.50;48.80;;;;;;5049224;28;19917;-90
2023/03/02 05:11:35;;;;;;;;;;;3.60;48.80;;;;;;5049702;28;19917;-90
2023/03/02 05:14:02;;;;;;;;;;;3.50;48.70;;;;;;5049014;28;19936;-90
2023/03/02 05:16:30;;;;;;;;;;;3.50;48.80;;;;;;5048424;28;20280;-89
2023/03/02 05:18:56;;;;;;;;;;;3.50;48.90;;;;;;5049952;28;20367;-91
2023/03/02 05:21:24;;;;;;;;;;;3.50;49.10;;;;;;5049227;28;20187;-90
2023/03/02 05:23:50;;;;;;;;;;;3.50;49.20;;;;;;5049197;28;19927;-90
2023/03/02 05:26:16;;;;;;;;;;;3.50;49.10;;;;;;5049309;28;19909;-91
2023/03/02 05:28:41;;;;;;;;;;;3.50;48.90;;;;;;5046979;28;19921;-90
2023/03/02 05:31:07;;;;;;;;;;;3.50;48.90;;;;;;5048227;28;19967;-91
2023/03/02 05:33:33;;;;;;;;;;;3.50;48.60;;;;;;5047234;28;19917;-92
2023/03/02 05:35:59;;;;;;;;;;;3.40;48.60;;;;;;5047722;28;19916;-91
2023/03/02 05:38:26;;;;;;;;;;;3.40;48.70;;;;;;5050665;28;19913;-91
2023/03/02 05:40:53;;;;;;;;;;;3.40;49.00;;;;;;5053635;28;20729;-90
2023/03/02 05:43:20;;;;;;;;;;;3.40;49.40;;;;;;5048129;28;19992;-91
2023/03/02 05:45:46;;;;;;;;;;;3.30;49.70;;;;;;5045946;28;19921;-91
2023/03/02 05:48:12;;;;;;;;;;;3.40;49.70;;;;;;5046367;28;19990;-91
2023/03/02 05:50:38;;;;;;;;;;;3.40;49.80;;;;;;5048690;28;19939;-92
2023/03/02 05:53:04;;;;;;;;;;;3.40;49.80;;;;;;5046706;28;19913;-91
2023/03/02 05:55:29;;;;;;;;;;;3.40;49.60;;;;;;5046680;28;19921;-91
2023/03/02 05:57:55;;;;;;;;;;;3.40;49.80;;;;;;5048493;28;19913;-90
2023/03/02 06:00:21;;;;;;;;;;;3.40;50.00;;;;;;5052488;28;19928;-92
2023/03/02 06:02:47;;;;;;;;;;;3.40;50.30;;;;;;5048033;28;19920;-91
2023/03/02 06:05:14;;;;;;;;;;;3.40;50.40;;;;;;5047275;28;20268;-91
2023/03/02 06:07:39;;;;;;;;;;;3.40;50.30;;;;;;5045141;28;19936;-91
2023/03/02 06:10:05;;;;;;;;;;;3.40;50.20;;;;;;5049874;28;19912;-94
2023/03/02 06:12:31;;;;;;;;;;;3.40;50.10;;;;;;5049557;28;20136;-90
2023/03/02 06:14:58;;;;;;;;;;;3.40;50.10;;;;;;5049760;28;19913;-93
2023/03/02 06:17:24;;;;;;;;;;;3.40;49.90;;;;;;5053675;28;19913;-89
2023/03/02 06:19:50;;;;;;;;;;;3.40;49.90;;;;;;5045951;28;20398;-90
2023/03/02 06:22:15;;;;;;;;;;;3.40;50.30;;;;;;5049212;28;20003;-92
2023/03/02 06:24:56;;;;;;;;;;;3.60;50.90;;;;;;5048304;28;20382;-91
2023/03/02 06:27:22;;;;;;;;;;;3.70;51.30;;;;;;5048336;28;19989;-90
2023/03/02 06:29:48;;;;;;;;;;;4.00;51.60;;;;;;5050240;28;20058;-92
2023/03/02 06:32:14;;;;;;;;;;;4.20;51.90;;;;;;5049706;28;19909;-91
2023/03/02 06:34:40;;;;;;;;;;;4.50;52.10;;;;;;5048656;28;20018;-90
2023/03/02 06:37:05;;;;;;;;;;;4.80;52.30;;;;;;5048274;28;19908;-90
2023/03/02 06:39:32;;;;;;;;;;;5.10;52.30;;;;;;5048910;28;19921;-91
2023/03/02 06:41:59;;;;;;;;;;;5.40;52.10;;;;;;5051644;28;20370;-90
2023/03/02 06:44:24;;;;;;;;;;;5.70;51.80;;;;;;5051544;28;20003;-91
2023/03/02 06:46:50;;;;;;;;;;;6.00;51.40;;;;;;5051536;28;20011;-91
2023/03/02 06:49:17;;;;;;;;;;;6.30;51.20;;;;;;5051819;28;19987;-90
2023/03/02 06:51:43;;;;;;;;;;;6.60;50.50;;;;;;5052446;28;19924;-92
2023/03/02 06:54:11;;;;;;;;;;;6.80;50.20;;;;;;5052514;28;19913;-91
2023/03/02 06:56:37;;;;;;;;;;;7.20;49.70;;;;;;5052507;28;19944;-90
2023/03/02 06:59:03;;;;;;;;;;;7.40;49.00;;;;;;5050974;28;19960;-91
2023/03/02 07:01:34;;;;;;;;;;;7.70;48.80;;;;;;5052239;28;19913;-92
2023/03/02 07:04:00;;;;;;;;;;;8.00;48.60;;;;;;5042766;28;19920;-90
2023/03/02 07:06:26;;;;;;;;;;;8.20;48.00;;;;;;5049224;28;20003;-90
2023/03/02 07:08:52;;;;;;;;;;;8.40;47.70;;;;;;5048889;28;20012;-91
2023/03/02 07:11:18;;;;;;;;;;;8.70;47.60;;;;;;5047358;28;19978;-91
2023/03/02 07:13:45;;;;;;;;;;;9.00;47.00;;;;;;5047608;28;19995;-92
2023/03/02 07:16:12;;;;;;;;;;;9.30;46.90;;;;;;5049816;28;19975;-89
2023/03/02 07:18:38;;;;;;;;;;;9.60;45.90;;;;;;5048651;28;19948;-90
2023/03/02 07:21:03;;;;;;;;;;;9.90;45.30;;;;;;5045379;28;20402;-92
2023/03/02 07:23:29;;;;;;;;;;;10.10;44.00;;;;;;5046090;28;19921;-90
2023/03/02 07:25:55;;;;;;;;;;;10.20;43.80;;;;;;5048969;28;19923;-94
2023/03/02 07:28:23;;;;;;;;;;;10.30;43.80;;;;;;5047516;28;19929;-89
2023/03/02 07:30:49;;;;;;;;;;;10.60;43.90;;;;;;5042507;28;19931;-93
2023/03/02 07:33:14;;;;;;;;;;;10.90;43.30;;;;;;5050589;28;19913;-90
2023/03/02 07:35:40;;;;;;;;;;;11.20;42.50;;;;;;5050268;28;19925;-89
2023/03/02 07:38:06;;;;;;;;;;;11.40;42.10;;;;;;5050177;28;19927;-90
2023/03/02 07:40:32;;;;;;;;;;;11.60;41.80;;;;;;5051357;28;19946;-92
2023/03/02 07:42:58;;;;;;;;;;;11.90;41.50;;;;;;5043887;28;19917;-90
2023/03/02 07:45:25;;;;;;;;;;;12.30;41.80;;;;;;5047613;28;19921;-92
2023/03/02 07:47:50;;;;;;;;;;;12.60;41.30;;;;;;5045768;28;19936;-91
2023/03/02 07:50:16;;;;;;;;;;;12.90;40.60;;;;;;5045879;28;19916;-91
2023/03/02 07:52:43;;;;;;;;;;;13.20;39.90;;;;;;5024894;28;19927;-91
2023/03/02 07:55:09;;;;;;;;;;;13.50;39.00;;;;;;5046263;28;19916;-90
2023/03/02 07:57:35;;;;;;;;;;;13.70;38.70;;;;;;5047210;28;19936;-92
2023/03/02 08:00:00;;;;;;;;;;;13.90;38.30;;;;;;5047258;28;20402;-91
2023/03/02 08:02:27;;;;;;;;;;;14.20;38.20;;;;;;5042946;28;20039;-91
2023/03/02 08:04:52;;;;;;;;;;;14.60;38.20;;;;;;5045401;28;19925;-92
2023/03/02 08:07:18;;;;;;;;;;;14.90;37.90;;;;;;5046891;28;20367;-93
2023/03/02 08:09:49;;;;;;;;;;;15.20;36.80;;;;;;5042746;28;19927;-92
2023/03/02 08:12:15;;;;;;;;;;;15.40;36.30;;;;;;5040952;28;20489;-91
2023/03/02 08:14:40;;;;;;;;;;;15.60;36.00;;;;;;5047652;28;19999;-91
2023/03/02 08:17:06;;;;;;;;;;;15.80;34.60;;;;;;5046184;28;19921;-91
2023/03/02 08:19:32;;;;;;;;;;;16.00;34.60;;;;;;5044246;28;19920;-91
2023/03/02 08:21:59;;;;;;;;;;;16.20;34.90;;;;;;5042120;28;20019;-91
2023/03/02 08:24:25;;;;;;;;;;;16.30;33.40;;;;;;5042080;28;19921;-93
2023/03/02 08:26:51;;;;;;;;;;;16.40;33.00;;;;;;5047347;28;20342;-91
2023/03/02 08:29:16;;;;;;;;;;;16.50;33.20;;;;;;5044815;28;19924;-91
2023/03/02 08:31:42;;;;;;;;;;;16.60;33.10;;;;;;5038116;28;19920;-91
2023/03/02 08:34:08;;;;;;;;;;;16.80;32.80;;;;;;5045727;28;19916;-91
2023/03/02 08:36:38;;;;;;;;;;;17.00;32.50;;;;;;5045229;28;19921;-93
2023/03/02 08:39:04;;;;;;;;;;;17.10;32.40;;;;;;5046800;28;19917;-94
2023/03/02 08:41:29;;;;;;;;;;;17.20;31.90;;;;;;5041976;28;19932;-90
2023/03/02 08:43:55;;;;;;;;;;;17.20;31.20;;;;;;5045998;28;19916;-94
2023/03/02 08:46:21;;;;;;;;;;;17.20;30.50;;;;;;5042856;28;19921;-91
2023/03/02 08:48:48;;;;;;;;;;;17.00;30.70;;;;;;5046577;28;19939;-90
2023/03/02 08:51:15;;;;;;;;;;;17.00;30.90;;;;;;5041280;28;19917;-92
2023/03/02 08:53:42;;;;;;;;;;;17.10;31.20;;;;;;5048113;28;19917;-92
2023/03/02 08:56:19;;;;;;;;;;;17.20;30.90;;;;;;5044286;28;19916;-91
2023/03/02 08:58:46;;;;;;;;;;;17.20;30.60;;;;;;5045324;28;19967;-94
2023/03/02 09:01:34;;;;;;;;;;;17.20;31.00;;;;;;5042122;28;19924;-92
2023/03/02 09:04:00;;;;;;;;;;;17.30;31.50;;;;;;5035630;28;20271;-91
2023/03/02 09:06:26;;;;;;;;;;;17.60;31.20;;;;;;5045113;28;19921;-91
2023/03/02 09:08:52;;;;;;;;;;;17.80;30.80;;;;;;5038176;28;20004;-89
2023/03/02 09:11:18;;;;;;;;;;;18.00;30.40;;;;;;5042317;28;20003;-91
2023/03/02 09:13:44;;;;;;;;;;;18.10;30.00;;;;;;5045702;28;20718;-92
2023/03/02 09:16:09;;;;;;;;;;;18.10;29.60;;;;;;5046638;28;19921;-90
2023/03/02 09:18:35;;;;;;;;;;;18.20;29.70;;;;;;5045515;28;19917;-91
2023/03/02 09:21:01;;;;;;;;;;;18.30;29.90;;;;;;5043533;28;20453;-95
2023/03/02 09:23:27;;;;;;;;;;;18.30;30.30;;;;;;5042461;28;19921;-90
2023/03/02 09:25:55;;;;;;;;;;;18.50;29.40;;;;;;5045149;28;19920;-92
2023/03/02 09:28:21;;;;;;;;;;;18.50;28.90;;;;;;5044969;28;19939;-91
2023/03/02 09:30:51;;;;;;;;;;;18.50;28.80;;;;;;5043200;28;19917;-91
2023/03/02 09:33:17;;;;;;;;;;;18.50;28.50;;;;;;5037902;28;19921;-91
2023/03/02 09:35:42;;;;;;;;;;;18.40;28.30;;;;;;5035560;28;21104;-91
2023/03/02 09:38:11;;;;;;;;;;;18.40;28.70;;;;;;5040786;28;19921;-91
2023/03/02 09:40:40;;;;;;;;;;;18.50;28.90;;;;;;5043698;28;20294;-91
2023/03/02 09:43:24;;;;;;;;;;;18.50;28.40;;;;;;5041835;28;19920;-91
2023/03/02 09:45:53;;;;;;;;;;;18.40;28.40;;;;;;5044945;28;19921;-89
2023/03/02 09:48:34;;;;;;;;;;;18.30;28.40;;;;;;5043531;28;19935;-91
2023/03/02 09:51:15;;;;;;;;;;;18.20;28.30;;;;;;5034859;28;20387;-91
2023/03/02 09:53:51;;;;;;;;;;;17.90;28.40;;;;;;5045387;28;19921;-93
2023/03/02 09:56:20;;;;;;;;;;;17.80;28.60;;;;;;5045427;28;20374;-90
2023/03/02 09:58:52;;;;;;;;;;;17.70;28.80;;;;;;5043348;28;19986;-92
2023/03/02 10:01:27;;;;;;;;;;;17.80;29.20;;;;;;5039316;28;19916;-90
2023/03/02 10:03:58;;;;;;;;;;;17.80;29.40;;;;;;5041646;28;19920;-91
2023/03/02 10:06:25;;;;;;;;;;;18.00;29.10;;;;;;5043472;28;19921;-94
2023/03/02 10:08:51;;;;;;;;;;;18.20;29.00;;;;;;5046982;28;19932;-91
2023/03/02 10:11:33;;;;;;;;;;;18.20;28.50;;;;;;5040597;28;19917;-91
2023/03/02 10:14:05;;;;;;;;;;;18.20;28.40;;;;;;5032560;28;20405;-91
2023/03/02 10:16:46;;;;;;;;;;;18.10;28.80;;;;;;5050432;28;20063;-89
2023/03/02 10:19:15;;;;;;;;;;;18.20;28.80;;;;;;5050017;28;19921;-90
2023/03/02 10:21:42;;;;;;;;;;;18.20;28.90;;;;;;5044920;28;19955;-91
2023/03/02 10:24:11;;;;;;;;;;;18.30;28.70;;;;;;5046965;28;19920;-91
2023/03/02 10:26:47;;;;;;;;;;;18.30;28.70;;;;;;5050976;28;19928;-91
2023/03/02 10:29:12;;;;;;;;;;;18.30;29.20;;;;;;5038970;28;19921;-90
2023/03/02 10:31:39;;;;;;;;;;;18.40;28.80;;;;;;5033665;28;19917;-91
2023/03/02 10:34:08;;;;;;;;;;;18.60;28.70;;;;;;5043373;28;19983;-92
2023/03/02 10:36:38;;;;;;;;;;;18.60;28.40;;;;;;5048988;28;20440;-91
2023/03/02 10:39:14;;;;;;;;;;;18.50;28.40;;;;;;5042480;28;19921;-90
2023/03/02 10:41:57;;;;;;;;;;;18.50;28.60;;;;;;5044018;28;19928;-90
2023/03/02 10:44:36;;;;;;;;;;;18.50;28.80;;;;;;5043724;28;19939;-93
2023/03/02 10:47:02;;;;;;;;;;;18.60;29.10;;;;;;5046946;28;19920;-92
2023/03/02 10:49:29;;;;;;;;;;;18.70;28.10;;;;;;5045431;28;19925;-89
2023/03/02 10:51:56;;;;;;;;;;;18.60;28.10;;;;;;5038697;28;19960;-91
2023/03/02 10:54:22;;;;;;;;;;;18.40;28.30;;;;;;5048002;28;19928;-90
2023/03/02 10:56:52;;;;;;;;;;;18.30;28.60;;;;;;5044285;28;20319;-90
2023/03/02 10:59:24;;;;;;;;;;;18.30;29.10;;;;;;5043928;28;19917;-89
2023/03/02 11:02:10;;;;;;;;;;;18.40;28.90;;;;;;5039092;28;20379;-90
2023/03/02 11:04:35;;;;;;;;;;;18.50;29.20;;;;;;5043629;28;20449;-91
2023/03/02 11:07:17;;;;;;;;;;;18.70;28.90;;;;;;5048349;28;20159;-91
2023/03/02 11:09:54;;;;;;;;;;;18.90;28.40;;;;;;5049667;28;19931;-91
2023/03/02 11:12:20;;;;;;;;;;;18.90;28.00;;;;;;5043122;28;19924;-93
2023/03/02 11:14:45;;;;;;;;;;;18.80;28.20;;;;;;5052306;28;19972;-89
2023/03/02 11:17:31;;;;;;;;;;;18.80;28.60;;;;;;5048212;28;19929;-93
2023/03/02 11:19:57;;;;;;;;;;;18.90;28.40;;;;;;5048724;28;19985;-90
2023/03/02 11:22:43;;;;;;;;;;;19.00;28.50;;;;;;5044579;28;19925;-91
2023/03/02 11:25:15;;;;;;;;;;;19.10;28.00;;;;;;5048983;28;19940;-94
2023/03/02 11:27:42;;;;;;;;;;;19.10;27.80;;;;;;5047321;28;19924;-94
2023/03/02 11:30:12;;;;;;;;;;;19.10;28.20;;;;;;5047300;28;19916;-92
2023/03/02 11:32:44;;;;;;;;;;;19.30;28.30;;;;;;5041119;28;20301;-91
2023/03/02 11:35:12;;;;;;;;;;;19.30;28.00;;;;;;5044547;28;19921;-92
2023/03/02 11:37:40;;;;;;;;;;;19.30;28.00;;;;;;5049018;28;19925;-90
2023/03/02 11:40:18;;;;;;;;;;;19.40;27.90;;;;;;5047694;28;19920;-92
2023/03/02 11:42:44;;;;;;;;;;;19.40;28.20;;;;;;5041139;28;20290;-91
2023/03/02 11:45:13;;;;;;;;;;;19.50;27.80;;;;;;5045829;28;19923;-90
2023/03/02 11:47:41;;;;;;;;;;;19.40;27.50;;;;;;5044139;28;19955;-92
2023/03/02 11:50:09;;;;;;;;;;;19.20;27.80;;;;;;5047339;28;19920;-91
2023/03/02 11:52:37;;;;;;;;;;;19.20;27.90;;;;;;5043037;28;19935;-93
2023/03/02 11:55:09;;;;;;;;;;;19.10;28.20;;;;;;5047848;28;19917;-93
2023/03/02 11:57:42;;;;;;;;;;;19.10;28.20;;;;;;5044010;28;19921;-90
2023/03/02 12:00:33;;;;;;;;;;;19.10;28.30;;;;;;5047827;28;19959;-91
2023/03/02 12:03:00;;;;;;;;;;;19.00;28.20;;;;;;5033886;28;19924;-91
2023/03/02 12:05:27;;;;;;;;;;;18.80;28.40;;;;;;5045064;28;20021;-91
2023/03/02 12:07:59;;;;;;;;;;;18.80;28.50;;;;;;5047333;28;19928;-90
2023/03/02 12:10:42;;;;;;;;;;;18.70;28.80;;;;;;5046176;28;19944;-94
2023/03/02 12:13:10;;;;;;;;;;;18.70;29.10;;;;;;5045951;28;19956;-95
2023/03/02 12:15:37;;;;;;;;;;;18.70;28.90;;;;;;5043821;28;20252;-95
2023/03/02 12:18:21;;;;;;;;;;;18.70;28.90;;;;;;5045823;28;19921;-91
2023/03/02 12:21:06;;;;;;;;;;;18.70;28.90;;;;;;5033455;28;20679;-94
2023/03/02 12:23:33;;;;;;;;;;;18.60;28.90;;;;;;5043607;28;19943;-90
2023/03/02 12:26:17;;;;;;;;;;;18.50;29.00;;;;;;5046089;28;19917;-90
2023/03/02 12:28:54;;;;;;;;;;;18.40;29.10;;;;;;5060868;28;19929;-92
2023/03/02 12:31:21;;;;;;;;;;;18.20;29.40;;;;;;5041433;28;19928;-89
2023/03/02 12:33:48;;;;;;;;;;;18.20;29.80;;;;;;5044969;28;19928;-91
2023/03/02 12:36:17;;;;;;;;;;;18.20;29.70;;;;;;5046894;28;20274;-90
2023/03/02 12:38:49;;;;;;;;;;;18.00;29.70;;;;;;5042664;28;19960;-95
2023/03/02 12:41:20;;;;;;;;;;;18.00;29.90;;;;;;5055874;28;19920;-93
2023/03/02 12:43:53;;;;;;;;;;;18.00;30.10;;;;;;5042899;28;19916;-90
2023/03/02 12:46:21;;;;;;;;;;;18.00;30.10;;;;;;5044531;28;20395;-91
2023/03/02 12:49:19;;;;;;;;;;;17.90;30.10;;;;;;5045402;28;19935;-91
2023/03/02 12:51:55;;;;;;;;;;;17.90;30.30;;;;;;5005611;28;19920;-92
2023/03/02 12:54:22;;;;;;;;;;;17.80;30.40;;;;;;5039811;28;20375;-91
2023/03/02 12:56:48;;;;;;;;;;;17.70;30.70;;;;;;5046061;28;19968;-91
2023/03/02 12:59:25;;;;;;;;;;;17.70;30.70;;;;;;5045147;28;20253;-92
2023/03/02 13:01:51;;;;;;;;;;;17.60;30.80;;;;;;5037180;28;19928;-90
2023/03/02 13:04:24;;;;;;;;;;;17.40;30.80;;;;;;5043495;28;19920;-91
2023/03/02 13:06:49;;;;;;;;;;;17.30;31.30;;;;;;5044961;28;19921;-90
2023/03/02 13:09:17;;;;;;;;;;;17.20;31.50;;;;;;5042868;28;20002;-94
2023/03/02 13:11:43;;;;;;;;;;;16.90;31.60;;;;;;5040382;28;19927;-93
2023/03/02 13:14:19;;;;;;;;;;;16.40;32.30;;;;;;5043308;28;19916;-92
2023/03/02 13:16:53;;;;;;;;;;;15.90;33.00;;;;;;5045401;28;19920;-93
2023/03/02 13:19:19;;;;;;;;;;;15.30;33.70;;;;;;5044828;28;20330;-91
2023/03/02 13:21:45;;;;;;;;;;;14.90;34.50;;;;;;5038089;28;20025;-90
2023/03/02 13:24:29;;;;;;;;;;;14.60;35.30;;;;;;5045100;28;19934;-91
2023/03/02 13:26:56;;;;;;;;;;;14.30;35.90;;;;;;5045077;28;19943;-89
2023/03/02 13:29:24;;;;;;;;;;;14.00;36.50;;;;;;5044985;28;19931;-90
2023/03/02 13:31:50;;;;;;;;;;;13.80;37.00;;;;;;5033949;28;20619;-91
2023/03/02 13:34:23;;;;;;;;;;;13.70;37.30;;;;;;5043047;28;19921;-92
2023/03/02 13:36:49;;;;;;;;;;;13.50;37.80;;;;;;5048165;28;19920;-89
2023/03/02 13:39:19;;;;;;;;;;;13.40;38.20;;;;;;5045357;28;19967;-90
2023/03/02 13:41:53;;;;;;;;;;;13.30;38.50;;;;;;5044380;28;20368;-90
2023/03/02 13:44:20;;;;;;;;;;;13.30;38.80;;;;;;5045083;28;19990;-91
2023/03/02 13:46:46;;;;;;;;;;;13.20;39.00;;;;;;5045340;28;20375;-91
2023/03/02 13:49:12;;;;;;;;;;;13.10;39.50;;;;;;5043724;28;19924;-91
2023/03/02 13:51:45;;;;;;;;;;;13.00;39.70;;;;;;5038748;28;20000;-92
2023/03/02 13:54:19;;;;;;;;;;;12.90;39.80;;;;;;5042777;28;19916;-92
2023/03/02 13:56:44;;;;;;;;;;;12.80;39.90;;;;;;5044414;28;19959;-92
2023/03/02 13:59:14;;;;;;;;;;;12.80;40.10;;;;;;5043090;28;19917;-91
2023/03/02 14:01:45;;;;;;;;;;;12.70;40.30;;;;;;5040283;28;19925;-92
2023/03/02 14:04:16;;;;;;;;;;;12.70;40.70;;;;;;5043424;28;19917;-91
2023/03/02 14:06:42;;;;;;;;;;;12.70;40.80;;;;;;5040879;28;19995;-92
2023/03/02 14:09:08;;;;;;;;;;;12.70;41.20;;;;;;5041024;28;19925;-92
2023/03/02 14:11:35;;;;;;;;;;;12.50;41.30;;;;;;5043633;28;19928;-92
2023/03/02 14:14:03;;;;;;;;;;;12.50;41.50;;;;;;5043615;28;19923;-90
2023/03/02 14:16:28;;;;;;;;;;;12.40;41.80;;;;;;5043655;28;19928;-89
2023/03/02 14:19:00;;;;;;;;;;;12.30;42.00;;;;;;5045390;28;20715;-92
2023/03/02 14:21:28;;;;;;;;;;;12.20;42.20;;;;;;5044995;28;19921;-93
2023/03/02 14:23:53;;;;;;;;;;;12.10;42.40;;;;;;5044574;28;19920;-92
2023/03/02 14:26:21;;;;;;;;;;;12.10;42.50;;;;;;5041615;28;19924;-91
2023/03/02 14:28:49;;;;;;;;;;;12.00;42.60;;;;;;5042413;28;19925;-92
2023/03/02 14:31:18;;;;;;;;;;;12.00;42.80;;;;;;5040444;28;19913;-93
2023/03/02 14:33:44;;;;;;;;;;;11.90;43.00;;;;;;5042521;28;19925;-90